sensor_id;sensor_type;location;lat;lon;timestamp;pressure;altitude;pressure_sealevel;temperature;humidity
47883;BME280;37739;50.350;7.578;2023-02-03T00:01:49;100801.88;;;7.18;90.83
47883;BME280;37739;50.350;7.578;2023-02-03T00:04:19;100806.00;;;7.16;91.30
47883;BME280;37739;50.350;7.578;2023-02-03T00:06:47;100806.78;;;7.15;91.40
47883;BME280;37739;50.350;7.578;2023-02-03T00:09:15;100817.13;;;7.16;91.60
47883;BME280;37739;50.350;7.578;2023-02-03T00:11:42;100796.69;;;7.16;91.31
47883;BME280;37739;50.350;7.578;2023-02-03T00:14:10;100796.00;;;7.19;90.82
47883;BME280;37739;50.350;7.578;2023-02-03T00:16:38;100805.22;;;7.17;90.86
47883;BME280;37739;50.350;7.578;2023-02-03T00:19:03;100806.56;;;7.12;92.08
47883;BME280;37739;50.350;7.578;2023-02-03T00:21:31;100812.66;;;7.14;91.74
47883;BME280;37739;50.350;7.578;2023-02-03T00:23:57;100800.88;;;7.16;91.81
47883;BME280;37739;50.350;7.578;2023-02-03T00:26:24;100810.03;;;7.12;92.68
47883;BME280;37739;50.350;7.578;2023-02-03T00:28:52;100805.81;;;7.13;92.21
47883;BME280;37739;50.350;7.578;2023-02-03T00:31:22;100801.69;;;7.15;92.64
47883;BME280;37739;50.350;7.578;2023-02-03T00:33:53;100807.66;;;7.15;92.52
47883;BME280;37739;50.350;7.578;2023-02-03T00:36:24;100793.22;;;7.16;92.64
47883;BME280;37739;50.350;7.578;2023-02-03T00:38:53;100775.38;;;7.16;91.96
47883;BME280;37739;50.350;7.578;2023-02-03T00:41:19;100765.16;;;7.16;92.19
47883;BME280;37739;50.350;7.578;2023-02-03T00:43:47;100751.53;;;7.15;92.36
47883;BME280;37739;50.350;7.578;2023-02-03T00:46:13;100735.44;;;7.16;91.74
47883;BME280;37739;50.350;7.578;2023-02-03T00:48:43;100723.56;;;7.17;91.99
47883;BME280;37739;50.350;7.578;2023-02-03T00:51:08;100730.34;;;7.16;92.32
47883;BME280;37739;50.350;7.578;2023-02-03T00:53:34;100743.09;;;7.16;91.70
47883;BME280;37739;50.350;7.578;2023-02-03T00:55:59;100756.84;;;7.18;91.96
47883;BME280;37739;50.350;7.578;2023-02-03T00:58:27;100738.97;;;7.18;91.80
47883;BME280;37739;50.350;7.578;2023-02-03T01:00:54;100737.19;;;7.17;91.99
47883;BME280;37739;50.350;7.578;2023-02-03T01:03:19;100739.16;;;7.21;92.12
47883;BME280;37739;50.350;7.578;2023-02-03T01:05:47;100734.28;;;7.24;91.62
47883;BME280;37739;50.350;7.578;2023-02-03T01:08:12;100738.19;;;7.19;91.38
47883;BME280;37739;50.350;7.578;2023-02-03T01:10:39;100734.84;;;7.20;92.02
47883;BME280;37739;50.350;7.578;2023-02-03T01:13:04;100728.28;;;7.24;91.15
47883;BME280;37739;50.350;7.578;2023-02-03T01:15:32;100724.94;;;7.25;91.35
47883;BME280;37739;50.350;7.578;2023-02-03T01:17:59;100725.91;;;7.27;90.78
47883;BME280;37739;50.350;7.578;2023-02-03T01:20:25;100735.34;;;7.28;91.17
47883;BME280;37739;50.350;7.578;2023-02-03T01:22:52;100726.81;;;7.27;90.81
47883;BME280;37739;50.350;7.578;2023-02-03T01:25:17;100726.63;;;7.24;91.05
47883;BME280;37739;50.350;7.578;2023-02-03T01:27:45;100733.28;;;7.22;90.71
47883;BME280;37739;50.350;7.578;2023-02-03T01:30:13;100729.38;;;7.27;90.56
47883;BME280;37739;50.350;7.578;2023-02-03T01:32:41;100717.38;;;7.26;90.55
47883;BME280;37739;50.350;7.578;2023-02-03T01:35:06;100720.16;;;7.30;90.88
47883;BME280;37739;50.350;7.578;2023-02-03T01:37:31;100727.13;;;7.32;90.37
47883;BME280;37739;50.350;7.578;2023-02-03T01:39:59;100734.66;;;7.31;90.18
47883;BME280;37739;50.350;7.578;2023-02-03T01:42:31;100714.94;;;7.28;90.76
47883;BME280;37739;50.350;7.578;2023-02-03T01:44:59;100722.59;;;7.28;90.39
47883;BME280;37739;50.350;7.578;2023-02-03T01:47:32;100713.25;;;7.28;90.81
47883;BME280;37739;50.350;7.578;2023-02-03T01:50:20;100730.38;;;7.30;91.11
47883;BME280;37739;50.350;7.578;2023-02-03T01:53:00;100716.63;;;7.27;91.18
47883;BME280;37739;50.350;7.578;2023-02-03T01:55:33;100719.47;;;7.32;90.69
47883;BME280;37739;50.350;7.578;2023-02-03T01:58:10;100726.31;;;7.33;90.49
47883;BME280;37739;50.350;7.578;2023-02-03T02:00:42;100728.97;;;7.35;90.44
47883;BME280;37739;50.350;7.578;2023-02-03T02:03:08;100740.16;;;7.37;90.01
47883;BME280;37739;50.350;7.578;2023-02-03T02:05:37;100748.50;;;7.34;90.11
47883;BME280;37739;50.350;7.578;2023-02-03T02:08:08;100749.28;;;7.33;90.49
47883;BME280;37739;50.350;7.578;2023-02-03T02:10:33;100760.50;;;7.35;90.26
47883;BME280;37739;50.350;7.578;2023-02-03T02:13:00;100764.91;;;7.38;90.17
47883;BME280;37739;50.350;7.578;2023-02-03T02:18:13;100752.84;;;7.35;90.45
47883;BME280;37739;50.350;7.578;2023-02-03T02:34:00;100755.19;;;7.32;90.55
47883;BME280;37739;50.350;7.578;2023-02-03T02:36:36;100767.25;;;7.35;90.09
47883;BME280;37739;50.350;7.578;2023-02-03T02:39:19;100770.78;;;7.37;90.09
47883;BME280;37739;50.350;7.578;2023-02-03T02:41:52;100768.94;;;7.34;90.42
47883;BME280;37739;50.350;7.578;2023-02-03T02:44:28;100763.06;;;7.35;90.26
47883;BME280;37739;50.350;7.578;2023-02-03T02:46:57;100756.28;;;7.36;89.75
47883;BME280;37739;50.350;7.578;2023-02-03T02:49:54;100751.28;;;7.37;89.62
47883;BME280;37739;50.350;7.578;2023-02-03T02:52:26;100751.28;;;7.37;88.92
47883;BME280;37739;50.350;7.578;2023-02-03T02:54:55;100749.78;;;7.41;88.85
47883;BME280;37739;50.350;7.578;2023-02-03T02:57:25;100746.47;;;7.42;88.86
47883;BME280;37739;50.350;7.578;2023-02-03T02:59:54;100743.03;;;7.41;88.83
47883;BME280;37739;50.350;7.578;2023-02-03T03:02:20;100749.00;;;7.42;88.96
47883;BME280;37739;50.350;7.578;2023-02-03T03:04:46;100732.94;;;7.43;88.46
47883;BME280;37739;50.350;7.578;2023-02-03T03:07:20;100737.22;;;7.44;88.38
47883;BME280;37739;50.350;7.578;2023-02-03T03:09:54;100721.91;;;7.44;88.72
47883;BME280;37739;50.350;7.578;2023-02-03T03:12:31;100722.72;;;7.43;88.50
47883;BME280;37739;50.350;7.578;2023-02-03T03:15:11;100714.16;;;7.42;89.25
47883;BME280;37739;50.350;7.578;2023-02-03T03:17:42;100710.59;;;7.40;89.18
47883;BME280;37739;50.350;7.578;2023-02-03T03:20:12;100713.00;;;7.37;89.54
47883;BME280;37739;50.350;7.578;2023-02-03T03:22:47;100702.84;;;7.39;89.59
47883;BME280;37739;50.350;7.578;2023-02-03T03:25:20;100708.88;;;7.39;89.53
47883;BME280;37739;50.350;7.578;2023-02-03T03:27:53;100704.75;;;7.41;89.59
47883;BME280;37739;50.350;7.578;2023-02-03T03:30:33;100720.72;;;7.39;89.69
47883;BME280;37739;50.350;7.578;2023-02-03T03:32:58;100729.34;;;7.41;89.83
47883;BME280;37739;50.350;7.578;2023-02-03T03:35:30;100743.03;;;7.41;89.63
47883;BME280;37739;50.350;7.578;2023-02-03T03:38:18;100751.47;;;7.40;90.47
47883;BME280;37739;50.350;7.578;2023-02-03T03:40:54;100743.69;;;7.39;90.30
47883;BME280;37739;50.350;7.578;2023-02-03T03:43:27;100744.59;;;7.39;90.00
47883;BME280;37739;50.350;7.578;2023-02-03T03:46:05;100733.41;;;7.37;90.93
47883;BME280;37739;50.350;7.578;2023-02-03T03:54:10;100727.00;;;7.31;92.17
47883;BME280;37739;50.350;7.578;2023-02-03T03:56:52;100722.72;;;7.30;91.61
47883;BME280;37739;50.350;7.578;2023-02-03T03:59:23;100720.22;;;7.31;91.56
47883;BME280;37739;50.350;7.578;2023-02-03T04:01:52;100729.56;;;7.31;91.20
47883;BME280;37739;50.350;7.578;2023-02-03T04:04:19;100717.78;;;7.33;91.10
47883;BME280;37739;50.350;7.578;2023-02-03T04:06:47;100721.13;;;7.32;90.79
47883;BME280;37739;50.350;7.578;2023-02-03T04:09:15;100714.56;;;7.35;90.58
47883;BME280;37739;50.350;7.578;2023-02-03T04:11:41;100710.13;;;7.33;90.48
47883;BME280;37739;50.350;7.578;2023-02-03T04:14:25;100716.03;;;7.32;90.85
47883;BME280;37739;50.350;7.578;2023-02-03T04:16:54;100723.09;;;7.36;90.34
47883;BME280;37739;50.350;7.578;2023-02-03T04:19:21;100713.53;;;7.33;90.21
47883;BME280;37739;50.350;7.578;2023-02-03T04:21:47;100705.22;;;7.36;90.06
47883;BME280;37739;50.350;7.578;2023-02-03T04:24:12;100695.00;;;7.36;89.39
47883;BME280;37739;50.350;7.578;2023-02-03T04:26:41;100702.06;;;7.40;88.53
47883;BME280;37739;50.350;7.578;2023-02-03T04:29:07;100707.28;;;7.41;87.84
47883;BME280;37739;50.350;7.578;2023-02-03T04:31:34;100708.28;;;7.43;87.88
47883;BME280;37739;50.350;7.578;2023-02-03T04:34:00;100711.00;;;7.46;87.72
47883;BME280;37739;50.350;7.578;2023-02-03T04:36:25;100726.41;;;7.48;87.57
47883;BME280;37739;50.350;7.578;2023-02-03T04:38:51;100740.00;;;7.47;87.49
47883;BME280;37739;50.350;7.578;2023-02-03T04:41:18;100744.19;;;7.46;87.04
47883;BME280;37739;50.350;7.578;2023-02-03T04:43:46;100746.06;;;7.49;87.22
47883;BME280;37739;50.350;7.578;2023-02-03T04:46:11;100724.06;;;7.51;87.03
47883;BME280;37739;50.350;7.578;2023-02-03T04:48:39;100711.41;;;7.53;86.77
47883;BME280;37739;50.350;7.578;2023-02-03T04:51:06;100715.63;;;7.52;85.77
47883;BME280;37739;50.350;7.578;2023-02-03T04:53:32;100701.19;;;7.53;86.05
47883;BME280;37739;50.350;7.578;2023-02-03T04:56:00;100708.06;;;7.54;85.58
47883;BME280;37739;50.350;7.578;2023-02-03T04:58:26;100702.25;;;7.56;85.60
47883;BME280;37739;50.350;7.578;2023-02-03T05:00:52;100693.59;;;7.54;84.65
47883;BME280;37739;50.350;7.578;2023-02-03T05:03:17;100708.25;;;7.57;84.76
47883;BME280;37739;50.350;7.578;2023-02-03T05:05:45;100709.25;;;7.59;84.53
47883;BME280;37739;50.350;7.578;2023-02-03T05:08:15;100721.31;;;7.61;84.82
47883;BME280;37739;50.350;7.578;2023-02-03T05:10:40;100711.97;;;7.62;84.34
47883;BME280;37739;50.350;7.578;2023-02-03T05:13:10;100691.47;;;7.60;84.54
47883;BME280;37739;50.350;7.578;2023-02-03T05:15:40;100702.34;;;7.58;84.76
47883;BME280;37739;50.350;7.578;2023-02-03T05:18:10;100692.84;;;7.55;84.93
47883;BME280;37739;50.350;7.578;2023-02-03T05:20:35;100697.16;;;7.56;85.42
47883;BME280;37739;50.350;7.578;2023-02-03T05:23:03;100702.94;;;7.54;85.29
47883;BME280;37739;50.350;7.578;2023-02-03T05:25:29;100691.88;;;7.53;85.92
47883;BME280;37739;50.350;7.578;2023-02-03T05:27:55;100705.41;;;7.52;85.17
47883;BME280;37739;50.350;7.578;2023-02-03T05:30:22;100701.19;;;7.53;85.52
47883;BME280;37739;50.350;7.578;2023-02-03T05:32:48;100699.63;;;7.55;85.69
47883;BME280;37739;50.350;7.578;2023-02-03T05:35:14;100697.75;;;7.52;85.56
47883;BME280;37739;50.350;7.578;2023-02-03T05:37:45;100697.66;;;7.51;85.85
47883;BME280;37739;50.350;7.578;2023-02-03T05:40:11;100701.88;;;7.50;85.68
47883;BME280;37739;50.350;7.578;2023-02-03T05:42:55;100693.22;;;7.48;85.87
47883;BME280;37739;50.350;7.578;2023-02-03T05:45:23;100700.00;;;7.47;85.85
47883;BME280;37739;50.350;7.578;2023-02-03T05:47:49;100700.00;;;7.47;85.65
47883;BME280;37739;50.350;7.578;2023-02-03T05:50:14;100697.47;;;7.47;85.43
47883;BME280;37739;50.350;7.578;2023-02-03T05:52:40;100691.66;;;7.50;85.47
47883;BME280;37739;50.350;7.578;2023-02-03T05:55:05;100680.47;;;7.48;85.70
47883;BME280;37739;50.350;7.578;2023-02-03T05:57:31;100667.59;;;7.46;86.13
47883;BME280;37739;50.350;7.578;2023-02-03T05:59:58;100684.59;;;7.46;86.04
47883;BME280;37739;50.350;7.578;2023-02-03T06:02:26;100684.59;;;7.46;85.73
47883;BME280;37739;50.350;7.578;2023-02-03T06:04:51;100688.03;;;7.46;85.82
47883;BME280;37739;50.350;7.578;2023-02-03T06:07:19;100686.28;;;7.45;85.78
47883;BME280;37739;50.350;7.578;2023-02-03T06:09:44;100689.59;;;7.44;86.06
47883;BME280;37739;50.350;7.578;2023-02-03T06:12:09;100694.69;;;7.44;85.76
47883;BME280;37739;50.350;7.578;2023-02-03T06:14:37;100696.47;;;7.45;85.58
47883;BME280;37739;50.350;7.578;2023-02-03T06:17:04;100693.22;;;7.48;85.25
47883;BME280;37739;50.350;7.578;2023-02-03T06:19:32;100699.13;;;7.47;85.02
47883;BME280;37739;50.350;7.578;2023-02-03T06:22:02;100701.00;;;7.50;85.58
47883;BME280;37739;50.350;7.578;2023-02-03T06:24:27;100710.94;;;7.45;85.34
47883;BME280;37739;50.350;7.578;2023-02-03T06:26:52;100708.56;;;7.48;85.31
47883;BME280;37739;50.350;7.578;2023-02-03T06:29:18;100699.22;;;7.48;85.35
47883;BME280;37739;50.350;7.578;2023-02-03T06:31:43;100699.31;;;7.50;85.82
47883;BME280;37739;50.350;7.578;2023-02-03T06:34:11;100701.75;;;7.48;85.60
47883;BME280;37739;50.350;7.578;2023-02-03T06:36:36;100706.81;;;7.47;85.53
47883;BME280;37739;50.350;7.578;2023-02-03T06:39:03;100690.00;;;7.51;85.08
47883;BME280;37739;50.350;7.578;2023-02-03T06:41:31;100693.22;;;7.48;85.48
47883;BME280;37739;50.350;7.578;2023-02-03T06:43:57;100701.00;;;7.50;85.02
47883;BME280;37739;50.350;7.578;2023-02-03T06:46:22;100709.63;;;7.52;84.81
47883;BME280;37739;50.350;7.578;2023-02-03T06:48:54;100710.50;;;7.52;84.53
47883;BME280;37739;50.350;7.578;2023-02-03T06:51:19;100710.44;;;7.51;84.44
47883;BME280;37739;50.350;7.578;2023-02-03T06:53:47;100721.53;;;7.51;84.50
47883;BME280;37739;50.350;7.578;2023-02-03T06:56:12;100725.06;;;7.53;84.46
47883;BME280;37739;50.350;7.578;2023-02-03T06:58:37;100718.38;;;7.55;84.84
47883;BME280;37739;50.350;7.578;2023-02-03T07:01:03;100693.59;;;7.54;84.47
47883;BME280;37739;50.350;7.578;2023-02-03T07:03:30;100703.81;;;7.54;84.47
47883;BME280;37739;50.350;7.578;2023-02-03T07:05:56;100717.41;;;7.53;84.34
47883;BME280;37739;50.350;7.578;2023-02-03T07:08:23;100703.75;;;7.53;84.43
47883;BME280;37739;50.350;7.578;2023-02-03T07:10:53;100704.63;;;7.53;84.48
47883;BME280;37739;50.350;7.578;2023-02-03T07:13:18;100714.75;;;7.52;84.29
47883;BME280;37739;50.350;7.578;2023-02-03T07:15:44;100706.31;;;7.53;84.28
47883;BME280;37739;50.350;7.578;2023-02-03T07:18:11;100720.94;;;7.55;84.41
47883;BME280;37739;50.350;7.578;2023-02-03T07:20:39;100717.41;;;7.53;84.83
47883;BME280;37739;50.350;7.578;2023-02-03T07:23:06;100712.19;;;7.52;84.48
47883;BME280;37739;50.350;7.578;2023-02-03T07:25:32;100710.72;;;7.55;84.50
47883;BME280;37739;50.350;7.578;2023-02-03T07:27:57;100704.81;;;7.56;84.34
47883;BME280;37739;50.350;7.578;2023-02-03T07:30:22;100700.50;;;7.55;83.96
47883;BME280;37739;50.350;7.578;2023-02-03T07:32:51;100696.97;;;7.53;84.07
47883;BME280;37739;50.350;7.578;2023-02-03T07:35:17;100699.69;;;7.56;83.90
47883;BME280;37739;50.350;7.578;2023-02-03T07:37:43;100703.94;;;7.56;83.43
47883;BME280;37739;50.350;7.578;2023-02-03T07:40:10;100711.69;;;7.57;83.42
47883;BME280;37739;50.350;7.578;2023-02-03T07:42:42;100727.13;;;7.59;83.80
47883;BME280;37739;50.350;7.578;2023-02-03T07:45:11;100730.44;;;7.58;84.07
47883;BME280;37739;50.350;7.578;2023-02-03T07:47:36;100728.59;;;7.55;83.48
47883;BME280;37739;50.350;7.578;2023-02-03T07:50:03;100739.69;;;7.56;83.62
47883;BME280;37739;50.350;7.578;2023-02-03T07:52:28;100727.72;;;7.55;83.81
47883;BME280;37739;50.350;7.578;2023-02-03T07:54:54;100728.78;;;7.58;82.95
47883;BME280;37739;50.350;7.578;2023-02-03T07:57:21;100723.00;;;7.61;82.67
47883;BME280;37739;50.350;7.578;2023-02-03T07:59:49;100726.63;;;7.64;82.69
47883;BME280;37739;50.350;7.578;2023-02-03T08:02:14;100727.59;;;7.66;82.91
47883;BME280;37739;50.350;7.578;2023-02-03T08:04:39;100723.09;;;7.62;82.48
47883;BME280;37739;50.350;7.578;2023-02-03T08:07:07;100730.34;;;7.70;82.56
47883;BME280;37739;50.350;7.578;2023-02-03T08:09:32;100731.31;;;7.72;82.10
47883;BME280;37739;50.350;7.578;2023-02-03T08:12:00;100726.31;;;7.73;81.54
47883;BME280;37739;50.350;7.578;2023-02-03T08:14:25;100721.31;;;7.75;81.36
47883;BME280;37739;50.350;7.578;2023-02-03T08:16:53;100727.22;;;7.74;81.41
47883;BME280;37739;50.350;7.578;2023-02-03T08:19:20;100715.44;;;7.76;81.27
47883;BME280;37739;50.350;7.578;2023-02-03T08:21:46;100708.75;;;7.78;81.06
47883;BME280;37739;50.350;7.578;2023-02-03T08:24:11;100720.69;;;7.79;80.55
47883;BME280;37739;50.350;7.578;2023-02-03T08:26:37;100731.03;;;7.80;80.55
47883;BME280;37739;50.350;7.578;2023-02-03T08:29:05;100730.16;;;7.80;80.36
47883;BME280;37739;50.350;7.578;2023-02-03T08:31:33;100719.13;;;7.81;80.99
47883;BME280;37739;50.350;7.578;2023-02-03T08:33:58;100725.41;;;7.86;81.25
47883;BME280;37739;50.350;7.578;2023-02-03T08:36:23;100732.88;;;7.83;80.20
47883;BME280;37739;50.350;7.578;2023-02-03T08:38:49;100734.84;;;7.87;80.70
47883;BME280;37739;50.350;7.578;2023-02-03T08:41:16;100725.53;;;7.88;80.68
47883;BME280;37739;50.350;7.578;2023-02-03T08:43:44;100721.38;;;7.90;80.40
47883;BME280;37739;50.350;7.578;2023-02-03T08:46:12;100716.06;;;7.86;80.19
47883;BME280;37739;50.350;7.578;2023-02-03T08:48:38;100714.59;;;7.90;80.71
47883;BME280;37739;50.350;7.578;2023-02-03T08:51:14;100719.81;;;7.92;79.43
47883;BME280;37739;50.350;7.578;2023-02-03T08:53:40;100721.88;;;7.97;79.61
47883;BME280;37739;50.350;7.578;2023-02-03T08:56:08;100701.59;;;8.00;79.07
47883;BME280;37739;50.350;7.578;2023-02-03T08:58:33;100708.59;;;8.03;79.35
47883;BME280;37739;50.350;7.578;2023-02-03T09:01:15;100697.56;;;8.04;78.69
47883;BME280;37739;50.350;7.578;2023-02-03T09:03:43;100700.47;;;8.10;78.76
47883;BME280;37739;50.350;7.578;2023-02-03T09:06:11;100707.38;;;8.11;78.54
47883;BME280;37739;50.350;7.578;2023-02-03T09:08:43;100709.94;;;8.11;78.03
47883;BME280;37739;50.350;7.578;2023-02-03T09:11:14;100702.63;;;8.17;78.42
47883;BME280;37739;50.350;7.578;2023-02-03T09:13:42;100708.03;;;8.22;77.91
47883;BME280;37739;50.350;7.578;2023-02-03T09:16:14;100709.19;;;8.27;77.08
47883;BME280;37739;50.350;7.578;2023-02-03T09:18:44;100695.88;;;8.33;77.55
47883;BME280;37739;50.350;7.578;2023-02-03T09:21:11;100698.66;;;8.36;77.21
47883;BME280;37739;50.350;7.578;2023-02-03T09:23:39;100704.16;;;8.42;77.26
47883;BME280;37739;50.350;7.578;2023-02-03T09:26:06;100696.47;;;8.42;77.08
47883;BME280;37739;50.350;7.578;2023-02-03T09:28:33;100701.78;;;8.45;77.31
47883;BME280;37739;50.350;7.578;2023-02-03T09:31:04;100700.97;;;8.46;76.80
47883;BME280;37739;50.350;7.578;2023-02-03T09:33:29;100717.31;;;8.48;76.74
47883;BME280;37739;50.350;7.578;2023-02-03T09:35:56;100717.59;;;8.53;76.85
47883;BME280;37739;50.350;7.578;2023-02-03T09:38:22;100707.53;;;8.56;76.63
47883;BME280;37739;50.350;7.578;2023-02-03T09:40:58;100705.84;;;8.56;76.50
47883;BME280;37739;50.350;7.578;2023-02-03T09:46:08;100700.81;;;8.58;76.07
47883;BME280;37739;50.350;7.578;2023-02-03T09:48:40;100703.28;;;8.56;76.02
47883;BME280;37739;50.350;7.578;2023-02-03T09:51:17;100700.81;;;8.58;76.03
47883;BME280;37739;50.350;7.578;2023-02-03T09:53:51;100703.38;;;8.58;76.09
47883;BME280;37739;50.350;7.578;2023-02-03T09:56:28;100693.34;;;8.61;76.36
47883;BME280;37739;50.350;7.578;2023-02-03T09:58:56;100689.91;;;8.60;76.20
47883;BME280;37739;50.350;7.578;2023-02-03T10:01:35;100686.56;;;8.61;76.25
47883;BME280;37739;50.350;7.578;2023-02-03T10:06:43;100681.72;;;8.66;76.07
47883;BME280;37739;50.350;7.578;2023-02-03T10:17:38;100692.56;;;8.77;76.08
47883;BME280;37739;50.350;7.578;2023-02-03T10:20:12;100691.78;;;8.78;76.07
47883;BME280;37739;50.350;7.578;2023-02-03T10:26:29;100695.31;;;8.80;75.60
47883;BME280;37739;50.350;7.578;2023-02-03T10:29:02;100698.84;;;8.82;75.82
47883;BME280;37739;50.350;7.578;2023-02-03T10:31:33;100703.09;;;8.81;75.93
47883;BME280;37739;50.350;7.578;2023-02-03T10:41:53;100725.13;;;8.79;76.70
47883;BME280;37739;50.350;7.578;2023-02-03T10:44:18;100722.38;;;8.76;77.29
47883;BME280;37739;50.350;7.578;2023-02-03T10:46:49;100726.03;;;8.80;77.39
47883;BME280;37739;50.350;7.578;2023-02-03T10:49:17;100734.66;;;8.82;77.34
47883;BME280;37739;50.350;7.578;2023-02-03T10:51:50;100749.66;;;8.76;78.02
47883;BME280;37739;50.350;7.578;2023-02-03T10:54:30;100754.69;;;8.74;78.23
47883;BME280;37739;50.350;7.578;2023-02-03T10:57:05;100753.09;;;8.76;78.66
47883;BME280;37739;50.350;7.578;2023-02-03T10:59:35;100757.41;;;8.77;79.31
47883;BME280;37739;50.350;7.578;2023-02-03T11:02:08;100763.59;;;8.81;79.29
47883;BME280;37739;50.350;7.578;2023-02-03T11:04:34;100763.50;;;8.79;79.78
47883;BME280;37739;50.350;7.578;2023-02-03T11:07:02;100764.41;;;8.80;80.41
47883;BME280;37739;50.350;7.578;2023-02-03T11:09:41;100757.59;;;8.80;81.14
47883;BME280;37739;50.350;7.578;2023-02-03T11:14:46;100742.75;;;8.75;82.81
47883;BME280;37739;50.350;7.578;2023-02-03T11:17:25;100729.19;;;8.76;82.59
47883;BME280;37739;50.350;7.578;2023-02-03T11:20:02;100729.97;;;8.75;84.33
47883;BME280;37739;50.350;7.578;2023-02-03T11:22:35;100715.50;;;8.75;84.31
47883;BME280;37739;50.350;7.578;2023-02-03T11:25:03;100712.06;;;8.75;84.63
47883;BME280;37739;50.350;7.578;2023-02-03T11:27:31;100713.75;;;8.74;85.57
47883;BME280;37739;50.350;7.578;2023-02-03T11:30:16;100702.53;;;8.72;85.61
47883;BME280;37739;50.350;7.578;2023-02-03T11:32:45;100699.28;;;8.75;85.57
47883;BME280;37739;50.350;7.578;2023-02-03T11:35:23;100692.56;;;8.77;84.99
47883;BME280;37739;50.350;7.578;2023-02-03T11:37:52;100684.88;;;8.77;84.76
47883;BME280;37739;50.350;7.578;2023-02-03T11:40:30;100692.47;;;8.75;85.08
47883;BME280;37739;50.350;7.578;2023-02-03T11:45:43;100690.88;;;8.77;85.10
47883;BME280;37739;50.350;7.578;2023-02-03T11:50:42;100690.09;;;8.78;84.64
47883;BME280;37739;50.350;7.578;2023-02-03T11:55:58;100690.19;;;8.80;84.47
47883;BME280;37739;50.350;7.578;2023-02-03T11:59:11;100681.56;;;8.78;84.85
47883;BME280;37739;50.350;7.578;2023-02-03T12:18:06;100655.25;;;8.95;84.54
47883;BME280;37739;50.350;7.578;2023-02-03T12:29:02;100647.72;;;8.98;84.45
47883;BME280;37739;50.350;7.578;2023-02-03T12:31:50;100642.72;;;9.00;84.18
47883;BME280;37739;50.350;7.578;2023-02-03T12:37:44;100649.41;;;8.98;84.13
47883;BME280;37739;50.350;7.578;2023-02-03T12:40:11;100652.94;;;9.00;84.16
47883;BME280;37739;50.350;7.578;2023-02-03T12:42:55;100648.78;;;9.02;83.81
47883;BME280;37739;50.350;7.578;2023-02-03T12:45:28;100645.38;;;9.01;83.81
47883;BME280;37739;50.350;7.578;2023-02-03T12:48:05;100645.56;;;9.04;83.67
47883;BME280;37739;50.350;7.578;2023-02-03T12:53:19;100648.97;;;9.05;83.69
47883;BME280;37739;50.350;7.578;2023-02-03T12:58:54;100650.72;;;9.06;83.62
47883;BME280;37739;50.350;7.578;2023-02-03T13:01:33;100637.06;;;9.06;83.32
47883;BME280;37739;50.350;7.578;2023-02-03T13:04:14;100643.78;;;9.03;83.41
47883;BME280;37739;50.350;7.578;2023-02-03T13:06:51;100650.72;;;9.06;83.42
47883;BME280;37739;50.350;7.578;2023-02-03T13:12:04;100661.94;;;9.08;83.50
47883;BME280;37739;50.350;7.578;2023-02-03T13:14:33;100650.19;;;9.12;83.58
47883;BME280;37739;50.350;7.578;2023-02-03T13:17:10;100635.66;;;9.11;83.51
47883;BME280;37739;50.350;7.578;2023-02-03T13:19:48;100638.22;;;9.11;83.84
47883;BME280;37739;50.350;7.578;2023-02-03T13:22:14;100644.19;;;9.11;83.70
47883;BME280;37739;50.350;7.578;2023-02-03T13:24:58;100640.88;;;9.12;83.76
47883;BME280;37739;50.350;7.578;2023-02-03T13:27:45;100649.41;;;9.13;83.96
47883;BME280;37739;50.350;7.578;2023-02-03T13:34:05;100659.56;;;9.11;83.46
47883;BME280;37739;50.350;7.578;2023-02-03T13:39:18;100658.06;;;9.15;83.76
47883;BME280;37739;50.350;7.578;2023-02-03T13:41:52;100652.66;;;9.10;83.72
47883;BME280;37739;50.350;7.578;2023-02-03T13:44:23;100648.16;;;9.06;83.87
47883;BME280;37739;50.350;7.578;2023-02-03T13:46:58;100654.34;;;9.10;83.88
47883;BME280;37739;50.350;7.578;2023-02-03T13:49:31;100657.97;;;9.13;83.74
47883;BME280;37739;50.350;7.578;2023-02-03T13:52:00;100662.03;;;9.10;84.06
47883;BME280;37739;50.350;7.578;2023-02-03T13:54:33;100659.91;;;9.17;83.97
47883;BME280;37739;50.350;7.578;2023-02-03T13:57:04;100647.72;;;9.13;83.95
47883;BME280;37739;50.350;7.578;2023-02-03T14:04:56;100650.63;;;9.19;83.83
47883;BME280;37739;50.350;7.578;2023-02-03T14:07:34;100661.69;;;9.18;83.50
47883;BME280;37739;50.350;7.578;2023-02-03T14:20:39;100676.75;;;9.29;82.70
47883;BME280;37739;50.350;7.578;2023-02-03T14:23:06;100684.63;;;9.32;82.70
47883;BME280;37739;50.350;7.578;2023-02-03T14:25:40;100666.84;;;9.35;82.47
47883;BME280;37739;50.350;7.578;2023-02-03T14:28:12;100683.72;;;9.31;82.49
47883;BME280;37739;50.350;7.578;2023-02-03T14:31:17;100686.22;;;9.30;82.65
47883;BME280;37739;50.350;7.578;2023-02-03T14:33:45;100691.34;;;9.30;82.92
47883;BME280;37739;50.350;7.578;2023-02-03T14:38:51;100693.25;;;9.34;82.96
47883;BME280;37739;50.350;7.578;2023-02-03T14:41:24;100690.53;;;9.31;82.99
47883;BME280;37739;50.350;7.578;2023-02-03T14:46:49;100688.47;;;9.40;82.56
47883;BME280;37739;50.350;7.578;2023-02-03T14:49:33;100691.66;;;9.36;82.28
47883;BME280;37739;50.350;7.578;2023-02-03T14:54:57;100692.44;;;9.35;82.36
47883;BME280;37739;50.350;7.578;2023-02-03T15:00:06;100690.06;;;9.38;82.90
47883;BME280;37739;50.350;7.578;2023-02-03T15:08:02;100689.44;;;9.42;82.22
47883;BME280;37739;50.350;7.578;2023-02-03T15:10:48;100701.53;;;9.44;82.39
47883;BME280;37739;50.350;7.578;2023-02-03T15:15:52;100709.75;;;9.39;82.16
47883;BME280;37739;50.350;7.578;2023-02-03T15:18:27;100714.09;;;9.40;82.43
47883;BME280;37739;50.350;7.578;2023-02-03T15:20:54;100701.63;;;9.46;82.54
47883;BME280;37739;50.350;7.578;2023-02-03T15:23:22;100683.25;;;9.53;81.98
47883;BME280;37739;50.350;7.578;2023-02-03T15:26:02;100681.88;;;9.60;81.72
47883;BME280;37739;50.350;7.578;2023-02-03T15:28:36;100669.59;;;9.69;81.20
47883;BME280;37739;50.350;7.578;2023-02-03T15:31:21;100672.88;;;9.67;81.12